McElhattan, Pennsylvania
Current Conditions -  °F | °C
As of 10:54 PM on Saturday 24 Jan 2015 (Local Time) from KIPT Reporting Station
Overcast Overcast  
Wind Chill: 24°   Ceiling: 2900
Heat Index: 33°   Visibility: 10mi
Dew Point: 24°   Wind: 13mph
Humidity: 70%   Direction: 260°W
Pressure: 29.55"   Gusts: NA
Location:  41.16°N, 77.36°W
Report Text: KIPT 250354Z AUTO 26011KT 10SM OVC029 01/M04 A2955 RMK AO2 SLP011 T00061044
Loading
Personal Weather Stations






























Interactive Weather Map New forecast layout! Learn more

10-Day Weather Forecast

Advertisements
Track Severe Weather on mobile